Date,TemperatureHighF,TemperatureAvgF,TemperatureLowF,DewpointHighF,DewpointAvgF,DewpointLowF,HumidityHigh,HumidityAvg,HumidityLow,PressureMaxIn,PressureMinIn,WindSpeedMaxMPH,WindSpeedAvgMPH,GustSpeedMaxMPH,PrecipitationSumIn
2012-12-1,28.9,27.6,26.2,28.0,20.1,4.0,99,77,35,30.49,30.35,5,1,9,0.00
2012-12-2,48.7,37.5,28.0,48.3,37.0,27.8,99,98,89,30.35,29.86,5,1,11,0.06
2012-12-3,61.9,48.2,33.4,50.7,42.9,33.2,99,84,47,30.15,29.84,12,2,17,0.01
2012-12-4,55.9,42.5,30.7,55.7,42.2,30.5,99,99,96,30.16,29.78,4,0,9,0.00
2012-12-5,58.6,49.1,31.8,57.5,36.7,14.2,99,64,42,29.99,29.65,15,4,26,0.02
2012-12-6,47.8,31.9,22.1,20.0,16.4,9.4,90,55,23,30.17,29.99,10,2,16,0.00
2012-12-7,45.5,33.2,20.5,40.2,30.0,18.3,99,89,63,30.13,29.87,3,0,5,0.04
2012-12-8,42.3,40.7,39.6,41.8,40.4,39.3,99,99,99,29.88,29.70,5,0,10,0.18
2012-12-9,40.8,40.8,40.8,40.6,40.6,40.6,99,99,99,29.73,29.73,1,1,3,0.18
2012-12-10,40.8,40.8,40.8,40.6,40.6,40.6,99,99,99,29.73,29.73,1,1,3,0.18
2012-12-11,40.8,40.8,40.8,40.6,40.6,40.6,99,99,99,29.73,29.73,1,1,3,0.18
2012-12-12,32.5,27.5,25.2,25.4,24.7,23.7,99,89,70,29.97,29.87,2,0,4,0.22
2012-12-13,25.0,24.3,23.5,24.6,24.1,23.3,99,99,97,29.99,29.97,2,0,3,0.00
2012-12-15,48.2,33.8,26.2,29.7,21.3,10.3,96,65,22,29.88,29.68,6,1,10,0.00
2012-12-16,28.0,26.3,25.0,26.7,21.4,16.4,99,83,67,29.90,29.66,6,2,10,0.00
2012-12-17,34.2,29.0,25.2,32.8,28.4,24.9,99,98,92,29.66,29.35,5,1,12,0.00
2012-12-18,46.4,40.7,34.3,46.1,40.3,32.5,99,99,93,29.36,28.89,6,2,11,0.53
2012-12-19,49.5,41.2,35.8,40.9,34.2,30.0,99,77,52,29.55,28.95,13,4,22,0.00
2012-12-20,42.8,35.8,26.6,35.9,29.9,26.4,99,80,58,29.75,29.55,4,1,8,0.00
2012-12-21,53.4,43.5,35.1,53.1,41.8,33.6,99,94,77,29.57,28.56,14,4,35,0.54
2012-12-22,41.4,33.6,28.4,34.8,23.2,12.6,99,68,43,29.19,28.68,14,4,27,0.00
2012-12-23,42.1,30.8,24.1,26.2,18.3,12.1,93,62,33,29.38,29.19,14,3,28,0.00
2012-12-24,46.8,32.0,25.5,25.3,18.9,10.4,87,61,24,29.59,29.34,9,1,15,0.00
2012-12-25,35.8,29.7,25.0,28.0,22.5,15.4,90,75,64,29.74,29.48,7,2,13,0.00
2012-12-26,39.0,29.1,19.6,33.9,19.1,10.8,99,68,33,29.93,29.55,10,2,20,0.00
2012-12-27,39.2,34.1,31.1,38.8,33.7,27.5,99,98,89,29.54,28.89,16,5,28,0.67
2012-12-28,39.7,31.5,26.6,27.5,22.7,18.8,87,71,51,29.63,29.23,15,4,27,0.00
2012-12-29,32.2,28.1,23.2,30.3,25.8,22.4,99,91,72,29.64,29.01,31,2,31,0.00
2012-12-30,31.3,26.3,19.9,26.9,18.3,6.9,99,74,42,29.61,29.04,15,5,28,0.00
2012-12-31,35.2,27.2,18.3,25.1,18.1,7.4,84,68,56,29.66,29.35,15,3,26,0.00